sensor_id;sensor_type;location;lat;lon;timestamp;P1;durP1;ratioP1;P2;durP2;ratioP2
50569;SDS011;36525;49.398;7.614;2023-07-31T00:02:09;7.45;;;1.55;;
50569;SDS011;36525;49.398;7.614;2023-07-31T00:04:36;8.60;;;1.65;;
50569;SDS011;36525;49.398;7.614;2023-07-31T00:07:03;7.95;;;1.70;;
50569;SDS011;36525;49.398;7.614;2023-07-31T00:09:32;9.23;;;1.42;;
50569;SDS011;36525;49.398;7.614;2023-07-31T00:12:02;8.43;;;1.88;;
50569;SDS011;36525;49.398;7.614;2023-07-31T00:14:30;5.45;;;1.58;;
50569;SDS011;36525;49.398;7.614;2023-07-31T00:16:57;7.53;;;1.98;;
50569;SDS011;36525;49.398;7.614;2023-07-31T00:19:24;8.77;;;2.15;;
50569;SDS011;36525;49.398;7.614;2023-07-31T00:21:51;9.40;;;1.85;;
50569;SDS011;36525;49.398;7.614;2023-07-31T00:24:18;8.35;;;2.00;;
50569;SDS011;36525;49.398;7.614;2023-07-31T00:26:45;8.15;;;1.83;;
50569;SDS011;36525;49.398;7.614;2023-07-31T00:29:12;8.32;;;2.17;;
50569;SDS011;36525;49.398;7.614;2023-07-31T00:31:39;5.22;;;1.45;;
50569;SDS011;36525;49.398;7.614;2023-07-31T00:34:07;4.88;;;1.38;;
50569;SDS011;36525;49.398;7.614;2023-07-31T00:36:34;4.20;;;1.45;;
50569;SDS011;36525;49.398;7.614;2023-07-31T00:39:01;6.10;;;2.00;;
50569;SDS011;36525;49.398;7.614;2023-07-31T00:41:28;6.55;;;1.45;;
50569;SDS011;36525;49.398;7.614;2023-07-31T00:43:55;6.70;;;1.60;;
50569;SDS011;36525;49.398;7.614;2023-07-31T00:46:22;9.07;;;1.65;;
50569;SDS011;36525;49.398;7.614;2023-07-31T00:48:49;11.88;;;1.67;;
50569;SDS011;36525;49.398;7.614;2023-07-31T00:51:16;6.32;;;1.50;;
50569;SDS011;36525;49.398;7.614;2023-07-31T00:53:43;8.18;;;1.55;;
50569;SDS011;36525;49.398;7.614;2023-07-31T00:56:11;5.53;;;1.50;;
50569;SDS011;36525;49.398;7.614;2023-07-31T00:58:39;7.75;;;1.85;;
50569;SDS011;36525;49.398;7.614;2023-07-31T01:01:07;10.60;;;1.92;;
50569;SDS011;36525;49.398;7.614;2023-07-31T01:03:34;8.30;;;1.67;;
50569;SDS011;36525;49.398;7.614;2023-07-31T01:09:01;6.53;;;1.80;;
50569;SDS011;36525;49.398;7.614;2023-07-31T01:11:45;5.63;;;1.63;;
50569;SDS011;36525;49.398;7.614;2023-07-31T01:14:23;6.22;;;1.65;;
50569;SDS011;36525;49.398;7.614;2023-07-31T01:16:50;8.55;;;1.88;;
50569;SDS011;36525;49.398;7.614;2023-07-31T01:19:17;9.88;;;1.73;;
50569;SDS011;36525;49.398;7.614;2023-07-31T01:21:56;6.75;;;1.70;;
50569;SDS011;36525;49.398;7.614;2023-07-31T01:28:02;10.52;;;2.33;;
50569;SDS011;36525;49.398;7.614;2023-07-31T01:30:33;6.10;;;1.67;;
50569;SDS011;36525;49.398;7.614;2023-07-31T01:33:04;5.60;;;1.20;;
50569;SDS011;36525;49.398;7.614;2023-07-31T01:35:34;4.45;;;1.38;;
50569;SDS011;36525;49.398;7.614;2023-07-31T01:38:03;8.25;;;1.42;;
50569;SDS011;36525;49.398;7.614;2023-07-31T01:40:31;12.07;;;1.88;;
50569;SDS011;36525;49.398;7.614;2023-07-31T01:42:58;5.25;;;1.67;;
50569;SDS011;36525;49.398;7.614;2023-07-31T01:45:26;7.30;;;1.77;;
50569;SDS011;36525;49.398;7.614;2023-07-31T01:47:53;10.73;;;2.10;;
50569;SDS011;36525;49.398;7.614;2023-07-31T01:50:20;6.75;;;1.48;;
50569;SDS011;36525;49.398;7.614;2023-07-31T01:52:47;7.93;;;1.98;;
50569;SDS011;36525;49.398;7.614;2023-07-31T01:55:14;7.38;;;1.73;;
50569;SDS011;36525;49.398;7.614;2023-07-31T01:57:41;5.78;;;1.60;;
50569;SDS011;36525;49.398;7.614;2023-07-31T02:00:10;7.93;;;1.70;;
50569;SDS011;36525;49.398;7.614;2023-07-31T02:02:37;6.88;;;1.77;;
50569;SDS011;36525;49.398;7.614;2023-07-31T02:05:04;7.07;;;1.50;;
50569;SDS011;36525;49.398;7.614;2023-07-31T02:07:32;8.20;;;2.13;;
50569;SDS011;36525;49.398;7.614;2023-07-31T02:09:59;6.32;;;1.65;;
50569;SDS011;36525;49.398;7.614;2023-07-31T02:12:26;9.73;;;1.42;;
50569;SDS011;36525;49.398;7.614;2023-07-31T02:14:56;7.10;;;1.63;;
50569;SDS011;36525;49.398;7.614;2023-07-31T02:17:24;6.53;;;1.80;;
50569;SDS011;36525;49.398;7.614;2023-07-31T02:19:51;7.05;;;1.63;;
50569;SDS011;36525;49.398;7.614;2023-07-31T02:22:18;13.02;;;1.98;;
50569;SDS011;36525;49.398;7.614;2023-07-31T02:24:45;7.82;;;1.60;;
50569;SDS011;36525;49.398;7.614;2023-07-31T02:27:12;8.18;;;2.10;;
50569;SDS011;36525;49.398;7.614;2023-07-31T02:29:39;5.00;;;1.80;;
50569;SDS011;36525;49.398;7.614;2023-07-31T02:32:06;6.50;;;1.80;;
50569;SDS011;36525;49.398;7.614;2023-07-31T02:34:33;9.32;;;1.77;;
50569;SDS011;36525;49.398;7.614;2023-07-31T02:37:01;8.55;;;1.60;;
50569;SDS011;36525;49.398;7.614;2023-07-31T02:39:28;7.75;;;1.92;;
50569;SDS011;36525;49.398;7.614;2023-07-31T02:41:55;9.15;;;1.73;;
50569;SDS011;36525;49.398;7.614;2023-07-31T02:44:22;11.77;;;2.35;;
50569;SDS011;36525;49.398;7.614;2023-07-31T02:46:49;8.25;;;2.20;;
50569;SDS011;36525;49.398;7.614;2023-07-31T02:49:16;6.47;;;1.75;;
50569;SDS011;36525;49.398;7.614;2023-07-31T02:51:43;8.13;;;2.30;;
50569;SDS011;36525;49.398;7.614;2023-07-31T02:54:10;9.10;;;2.05;;
50569;SDS011;36525;49.398;7.614;2023-07-31T02:56:37;10.65;;;2.10;;
50569;SDS011;36525;49.398;7.614;2023-07-31T02:59:04;4.30;;;1.83;;
50569;SDS011;36525;49.398;7.614;2023-07-31T03:01:31;8.15;;;1.45;;
50569;SDS011;36525;49.398;7.614;2023-07-31T03:03:59;8.32;;;1.83;;
50569;SDS011;36525;49.398;7.614;2023-07-31T03:06:26;7.00;;;1.58;;
50569;SDS011;36525;49.398;7.614;2023-07-31T03:08:54;5.57;;;1.23;;
50569;SDS011;36525;49.398;7.614;2023-07-31T03:11:21;12.68;;;1.90;;
50569;SDS011;36525;49.398;7.614;2023-07-31T03:13:48;9.52;;;2.03;;
50569;SDS011;36525;49.398;7.614;2023-07-31T03:16:15;9.77;;;1.90;;
50569;SDS011;36525;49.398;7.614;2023-07-31T03:18:42;7.20;;;2.00;;
50569;SDS011;36525;49.398;7.614;2023-07-31T03:21:09;8.07;;;1.90;;
50569;SDS011;36525;49.398;7.614;2023-07-31T03:23:36;8.85;;;1.95;;
50569;SDS011;36525;49.398;7.614;2023-07-31T03:26:06;16.92;;;1.95;;
50569;SDS011;36525;49.398;7.614;2023-07-31T03:28:34;8.07;;;1.50;;
50569;SDS011;36525;49.398;7.614;2023-07-31T03:31:01;7.05;;;1.90;;
50569;SDS011;36525;49.398;7.614;2023-07-31T03:33:28;7.75;;;1.45;;
50569;SDS011;36525;49.398;7.614;2023-07-31T03:35:56;8.30;;;2.17;;
50569;SDS011;36525;49.398;7.614;2023-07-31T03:38:23;8.57;;;2.22;;
50569;SDS011;36525;49.398;7.614;2023-07-31T03:40:50;10.00;;;2.05;;
50569;SDS011;36525;49.398;7.614;2023-07-31T03:43:20;6.10;;;1.70;;
50569;SDS011;36525;49.398;7.614;2023-07-31T03:45:47;9.85;;;2.03;;
50569;SDS011;36525;49.398;7.614;2023-07-31T03:48:14;7.82;;;1.75;;
50569;SDS011;36525;49.398;7.614;2023-07-31T03:50:42;10.18;;;2.47;;
50569;SDS011;36525;49.398;7.614;2023-07-31T03:53:09;7.18;;;2.00;;
50569;SDS011;36525;49.398;7.614;2023-07-31T03:55:36;6.68;;;2.03;;
50569;SDS011;36525;49.398;7.614;2023-07-31T03:58:03;6.97;;;1.98;;
50569;SDS011;36525;49.398;7.614;2023-07-31T04:00:30;7.95;;;1.95;;
50569;SDS011;36525;49.398;7.614;2023-07-31T04:02:58;8.93;;;2.05;;
50569;SDS011;36525;49.398;7.614;2023-07-31T04:05:25;8.90;;;1.90;;
50569;SDS011;36525;49.398;7.614;2023-07-31T04:07:52;9.65;;;1.70;;
50569;SDS011;36525;49.398;7.614;2023-07-31T04:10:19;7.95;;;2.05;;
50569;SDS011;36525;49.398;7.614;2023-07-31T04:12:46;6.90;;;1.50;;
50569;SDS011;36525;49.398;7.614;2023-07-31T04:15:13;7.80;;;1.63;;
50569;SDS011;36525;49.398;7.614;2023-07-31T04:17:40;6.78;;;1.63;;
50569;SDS011;36525;49.398;7.614;2023-07-31T04:20:08;9.18;;;1.95;;
50569;SDS011;36525;49.398;7.614;2023-07-31T04:22:36;9.05;;;2.10;;
50569;SDS011;36525;49.398;7.614;2023-07-31T04:25:03;9.98;;;1.80;;
50569;SDS011;36525;49.398;7.614;2023-07-31T04:27:30;6.72;;;1.75;;
50569;SDS011;36525;49.398;7.614;2023-07-31T04:29:57;9.82;;;2.25;;
50569;SDS011;36525;49.398;7.614;2023-07-31T04:32:24;6.43;;;1.95;;
50569;SDS011;36525;49.398;7.614;2023-07-31T04:34:51;6.95;;;1.90;;
50569;SDS011;36525;49.398;7.614;2023-07-31T04:37:18;6.50;;;1.63;;
50569;SDS011;36525;49.398;7.614;2023-07-31T04:39:45;10.65;;;1.77;;
50569;SDS011;36525;49.398;7.614;2023-07-31T04:42:13;5.25;;;1.60;;
50569;SDS011;36525;49.398;7.614;2023-07-31T04:44:40;5.95;;;1.80;;
50569;SDS011;36525;49.398;7.614;2023-07-31T04:47:07;6.88;;;2.10;;
50569;SDS011;36525;49.398;7.614;2023-07-31T04:49:34;10.27;;;2.20;;
50569;SDS011;36525;49.398;7.614;2023-07-31T04:52:01;7.75;;;2.42;;
50569;SDS011;36525;49.398;7.614;2023-07-31T04:54:28;10.82;;;1.80;;
50569;SDS011;36525;49.398;7.614;2023-07-31T04:56:55;6.20;;;1.52;;
50569;SDS011;36525;49.398;7.614;2023-07-31T04:59:22;11.55;;;2.40;;
50569;SDS011;36525;49.398;7.614;2023-07-31T05:01:50;9.52;;;2.20;;
50569;SDS011;36525;49.398;7.614;2023-07-31T05:04:17;6.47;;;1.85;;
50569;SDS011;36525;49.398;7.614;2023-07-31T05:06:44;6.55;;;1.70;;
50569;SDS011;36525;49.398;7.614;2023-07-31T05:09:11;6.55;;;1.63;;
50569;SDS011;36525;49.398;7.614;2023-07-31T05:11:38;8.13;;;2.53;;
50569;SDS011;36525;49.398;7.614;2023-07-31T05:14:06;9.73;;;2.05;;
50569;SDS011;36525;49.398;7.614;2023-07-31T05:16:33;5.30;;;1.42;;
50569;SDS011;36525;49.398;7.614;2023-07-31T05:19:01;8.57;;;1.90;;
50569;SDS011;36525;49.398;7.614;2023-07-31T05:21:28;7.05;;;1.90;;
50569;SDS011;36525;49.398;7.614;2023-07-31T05:23:55;5.82;;;1.83;;
50569;SDS011;36525;49.398;7.614;2023-07-31T05:26:22;10.73;;;1.98;;
50569;SDS011;36525;49.398;7.614;2023-07-31T05:28:49;6.07;;;1.42;;
50569;SDS011;36525;49.398;7.614;2023-07-31T05:31:16;10.00;;;1.95;;
50569;SDS011;36525;49.398;7.614;2023-07-31T05:33:43;6.68;;;1.85;;
50569;SDS011;36525;49.398;7.614;2023-07-31T05:36:10;9.13;;;2.08;;
50569;SDS011;36525;49.398;7.614;2023-07-31T05:38:38;6.43;;;1.75;;
50569;SDS011;36525;49.398;7.614;2023-07-31T05:41:08;8.90;;;2.40;;
50569;SDS011;36525;49.398;7.614;2023-07-31T05:43:35;5.78;;;2.00;;
50569;SDS011;36525;49.398;7.614;2023-07-31T05:46:02;14.73;;;2.28;;
50569;SDS011;36525;49.398;7.614;2023-07-31T05:48:32;9.50;;;2.17;;
50569;SDS011;36525;49.398;7.614;2023-07-31T05:51:00;6.15;;;1.73;;
50569;SDS011;36525;49.398;7.614;2023-07-31T05:53:27;10.90;;;2.28;;
50569;SDS011;36525;49.398;7.614;2023-07-31T05:55:54;8.02;;;2.13;;
50569;SDS011;36525;49.398;7.614;2023-07-31T05:58:21;7.63;;;2.40;;
50569;SDS011;36525;49.398;7.614;2023-07-31T06:00:48;6.97;;;1.92;;
50569;SDS011;36525;49.398;7.614;2023-07-31T06:03:16;8.13;;;2.00;;
50569;SDS011;36525;49.398;7.614;2023-07-31T06:05:46;5.15;;;1.98;;
50569;SDS011;36525;49.398;7.614;2023-07-31T06:08:13;8.68;;;1.92;;
50569;SDS011;36525;49.398;7.614;2023-07-31T06:10:40;9.68;;;2.85;;
50569;SDS011;36525;49.398;7.614;2023-07-31T06:13:07;9.80;;;2.47;;
50569;SDS011;36525;49.398;7.614;2023-07-31T06:15:34;8.38;;;2.10;;
50569;SDS011;36525;49.398;7.614;2023-07-31T06:18:04;7.75;;;2.08;;
50569;SDS011;36525;49.398;7.614;2023-07-31T06:20:34;8.00;;;2.42;;
50569;SDS011;36525;49.398;7.614;2023-07-31T06:23:01;6.65;;;2.25;;
50569;SDS011;36525;49.398;7.614;2023-07-31T06:25:29;8.02;;;2.58;;
50569;SDS011;36525;49.398;7.614;2023-07-31T06:27:56;9.40;;;2.33;;
50569;SDS011;36525;49.398;7.614;2023-07-31T06:30:23;8.38;;;1.85;;
50569;SDS011;36525;49.398;7.614;2023-07-31T06:32:51;11.48;;;2.17;;
50569;SDS011;36525;49.398;7.614;2023-07-31T06:35:18;10.07;;;2.28;;
50569;SDS011;36525;49.398;7.614;2023-07-31T06:37:45;6.78;;;2.00;;
50569;SDS011;36525;49.398;7.614;2023-07-31T06:40:12;9.98;;;2.20;;
50569;SDS011;36525;49.398;7.614;2023-07-31T06:42:39;8.68;;;2.00;;
50569;SDS011;36525;49.398;7.614;2023-07-31T06:45:07;6.47;;;2.00;;
50569;SDS011;36525;49.398;7.614;2023-07-31T06:47:34;9.05;;;2.22;;
50569;SDS011;36525;49.398;7.614;2023-07-31T06:50:02;7.38;;;1.80;;
50569;SDS011;36525;49.398;7.614;2023-07-31T06:52:29;14.98;;;3.05;;
50569;SDS011;36525;49.398;7.614;2023-07-31T06:55:03;5.18;;;1.95;;
50569;SDS011;36525;49.398;7.614;2023-07-31T06:57:45;8.27;;;2.28;;
50569;SDS011;36525;49.398;7.614;2023-07-31T07:00:17;8.52;;;2.25;;
50569;SDS011;36525;49.398;7.614;2023-07-31T07:02:45;6.50;;;2.38;;
50569;SDS011;36525;49.398;7.614;2023-07-31T07:05:16;12.65;;;2.80;;
50569;SDS011;36525;49.398;7.614;2023-07-31T07:07:44;11.25;;;2.85;;
50569;SDS011;36525;49.398;7.614;2023-07-31T07:10:11;12.15;;;2.55;;
50569;SDS011;36525;49.398;7.614;2023-07-31T07:12:39;7.22;;;2.05;;
50569;SDS011;36525;49.398;7.614;2023-07-31T07:15:06;6.85;;;2.03;;
50569;SDS011;36525;49.398;7.614;2023-07-31T07:17:36;8.32;;;2.40;;
50569;SDS011;36525;49.398;7.614;2023-07-31T07:20:04;7.15;;;2.28;;
50569;SDS011;36525;49.398;7.614;2023-07-31T07:22:32;7.50;;;2.10;;
50569;SDS011;36525;49.398;7.614;2023-07-31T07:24:59;6.97;;;2.10;;
50569;SDS011;36525;49.398;7.614;2023-07-31T07:27:30;16.33;;;2.83;;
50569;SDS011;36525;49.398;7.614;2023-07-31T07:29:57;18.98;;;2.88;;
50569;SDS011;36525;49.398;7.614;2023-07-31T07:32:24;6.43;;;1.90;;
50569;SDS011;36525;49.398;7.614;2023-07-31T07:34:52;9.65;;;2.65;;
50569;SDS011;36525;49.398;7.614;2023-07-31T07:37:19;6.43;;;2.25;;
50569;SDS011;36525;49.398;7.614;2023-07-31T07:39:46;7.80;;;2.20;;
50569;SDS011;36525;49.398;7.614;2023-07-31T07:42:13;7.70;;;2.25;;
50569;SDS011;36525;49.398;7.614;2023-07-31T07:44:40;9.00;;;2.33;;
50569;SDS011;36525;49.398;7.614;2023-07-31T07:47:07;7.32;;;2.20;;
50569;SDS011;36525;49.398;7.614;2023-07-31T07:49:35;6.68;;;2.10;;
50569;SDS011;36525;49.398;7.614;2023-07-31T07:52:02;6.10;;;1.95;;
50569;SDS011;36525;49.398;7.614;2023-07-31T07:54:30;7.22;;;1.90;;
50569;SDS011;36525;49.398;7.614;2023-07-31T07:56:58;8.93;;;2.35;;
50569;SDS011;36525;49.398;7.614;2023-07-31T07:59:25;7.07;;;2.17;;
50569;SDS011;36525;49.398;7.614;2023-07-31T08:01:52;8.20;;;2.25;;
50569;SDS011;36525;49.398;7.614;2023-07-31T08:04:19;7.93;;;2.00;;
50569;SDS011;36525;49.398;7.614;2023-07-31T08:06:47;9.73;;;2.53;;
50569;SDS011;36525;49.398;7.614;2023-07-31T08:09:14;7.38;;;2.17;;
50569;SDS011;36525;49.398;7.614;2023-07-31T08:11:41;9.27;;;2.67;;
50569;SDS011;36525;49.398;7.614;2023-07-31T08:14:08;8.82;;;2.55;;
50569;SDS011;36525;49.398;7.614;2023-07-31T08:16:35;9.63;;;2.95;;
50569;SDS011;36525;49.398;7.614;2023-07-31T08:19:02;8.60;;;2.20;;
50569;SDS011;36525;49.398;7.614;2023-07-31T08:21:29;7.45;;;2.30;;
50569;SDS011;36525;49.398;7.614;2023-07-31T08:23:56;9.00;;;2.00;;
50569;SDS011;36525;49.398;7.614;2023-07-31T08:26:23;8.50;;;2.95;;
50569;SDS011;36525;49.398;7.614;2023-07-31T08:28:50;9.45;;;2.67;;
50569;SDS011;36525;49.398;7.614;2023-07-31T08:31:17;8.52;;;2.55;;
50569;SDS011;36525;49.398;7.614;2023-07-31T08:33:45;8.38;;;2.08;;
50569;SDS011;36525;49.398;7.614;2023-07-31T08:36:12;6.60;;;2.25;;
50569;SDS011;36525;49.398;7.614;2023-07-31T08:38:39;8.57;;;2.25;;
50569;SDS011;36525;49.398;7.614;2023-07-31T08:41:06;7.05;;;2.47;;
50569;SDS011;36525;49.398;7.614;2023-07-31T08:43:35;7.28;;;2.40;;
50569;SDS011;36525;49.398;7.614;2023-07-31T08:46:04;7.15;;;2.20;;
50569;SDS011;36525;49.398;7.614;2023-07-31T08:48:32;7.55;;;2.55;;
50569;SDS011;36525;49.398;7.614;2023-07-31T08:50:59;13.73;;;2.65;;
50569;SDS011;36525;49.398;7.614;2023-07-31T08:53:26;7.32;;;2.15;;
50569;SDS011;36525;49.398;7.614;2023-07-31T08:55:54;6.65;;;2.22;;
50569;SDS011;36525;49.398;7.614;2023-07-31T08:58:23;9.27;;;2.35;;
50569;SDS011;36525;49.398;7.614;2023-07-31T09:00:51;5.57;;;1.95;;
50569;SDS011;36525;49.398;7.614;2023-07-31T09:03:21;9.20;;;2.03;;
50569;SDS011;36525;49.398;7.614;2023-07-31T09:05:52;8.10;;;2.13;;
50569;SDS011;36525;49.398;7.614;2023-07-31T09:08:22;10.52;;;2.05;;
50569;SDS011;36525;49.398;7.614;2023-07-31T09:10:49;5.95;;;2.60;;
50569;SDS011;36525;49.398;7.614;2023-07-31T09:13:16;8.60;;;2.60;;
50569;SDS011;36525;49.398;7.614;2023-07-31T09:15:44;8.23;;;2.28;;
50569;SDS011;36525;49.398;7.614;2023-07-31T09:18:13;7.97;;;2.28;;
50569;SDS011;36525;49.398;7.614;2023-07-31T09:20:43;5.72;;;1.98;;
50569;SDS011;36525;49.398;7.614;2023-07-31T09:23:11;10.50;;;2.55;;
50569;SDS011;36525;49.398;7.614;2023-07-31T09:25:43;7.35;;;2.03;;
50569;SDS011;36525;49.398;7.614;2023-07-31T09:28:11;10.82;;;3.00;;
50569;SDS011;36525;49.398;7.614;2023-07-31T09:30:49;7.75;;;2.30;;
50569;SDS011;36525;49.398;7.614;2023-07-31T09:33:18;10.63;;;2.45;;
50569;SDS011;36525;49.398;7.614;2023-07-31T09:35:46;7.85;;;2.42;;
50569;SDS011;36525;49.398;7.614;2023-07-31T09:38:15;11.48;;;2.78;;
50569;SDS011;36525;49.398;7.614;2023-07-31T09:40:44;9.00;;;2.65;;
50569;SDS011;36525;49.398;7.614;2023-07-31T09:43:19;11.32;;;2.90;;
50569;SDS011;36525;49.398;7.614;2023-07-31T09:45:48;11.43;;;3.63;;
50569;SDS011;36525;49.398;7.614;2023-07-31T09:48:22;7.18;;;2.75;;
50569;SDS011;36525;49.398;7.614;2023-07-31T09:50:53;8.63;;;2.63;;
50569;SDS011;36525;49.398;7.614;2023-07-31T09:53:27;8.55;;;2.60;;
50569;SDS011;36525;49.398;7.614;2023-07-31T09:55:58;7.05;;;3.03;;
50569;SDS011;36525;49.398;7.614;2023-07-31T09:58:26;7.40;;;2.40;;
50569;SDS011;36525;49.398;7.614;2023-07-31T10:00:57;6.68;;;2.78;;
50569;SDS011;36525;49.398;7.614;2023-07-31T10:03:26;8.68;;;2.90;;
50569;SDS011;36525;49.398;7.614;2023-07-31T10:06:03;8.60;;;3.17;;
50569;SDS011;36525;49.398;7.614;2023-07-31T10:08:32;12.57;;;2.42;;
50569;SDS011;36525;49.398;7.614;2023-07-31T10:11:02;8.88;;;2.78;;
50569;SDS011;36525;49.398;7.614;2023-07-31T10:13:31;10.05;;;3.05;;
50569;SDS011;36525;49.398;7.614;2023-07-31T10:15:59;11.68;;;3.15;;
50569;SDS011;36525;49.398;7.614;2023-07-31T10:18:32;8.95;;;3.50;;
50569;SDS011;36525;49.398;7.614;2023-07-31T10:21:01;8.32;;;2.85;;
50569;SDS011;36525;49.398;7.614;2023-07-31T10:23:28;7.03;;;2.13;;
50569;SDS011;36525;49.398;7.614;2023-07-31T10:26:13;11.68;;;2.63;;
50569;SDS011;36525;49.398;7.614;2023-07-31T10:28:40;7.10;;;2.80;;
50569;SDS011;36525;49.398;7.614;2023-07-31T10:31:09;10.25;;;2.50;;
50569;SDS011;36525;49.398;7.614;2023-07-31T10:33:36;5.68;;;2.38;;
50569;SDS011;36525;49.398;7.614;2023-07-31T10:36:16;8.50;;;2.60;;
50569;SDS011;36525;49.398;7.614;2023-07-31T10:38:46;8.57;;;2.88;;
50569;SDS011;36525;49.398;7.614;2023-07-31T10:41:16;8.38;;;2.72;;
50569;SDS011;36525;49.398;7.614;2023-07-31T10:43:45;9.80;;;3.28;;
50569;SDS011;36525;49.398;7.614;2023-07-31T10:46:13;9.73;;;3.33;;
50569;SDS011;36525;49.398;7.614;2023-07-31T10:48:41;8.55;;;2.63;;
50569;SDS011;36525;49.398;7.614;2023-07-31T10:51:08;9.10;;;2.70;;
50569;SDS011;36525;49.398;7.614;2023-07-31T10:53:39;7.40;;;2.45;;
50569;SDS011;36525;49.398;7.614;2023-07-31T10:56:07;9.02;;;3.22;;
50569;SDS011;36525;49.398;7.614;2023-07-31T10:58:36;10.35;;;2.53;;
50569;SDS011;36525;49.398;7.614;2023-07-31T11:01:07;8.13;;;2.88;;
50569;SDS011;36525;49.398;7.614;2023-07-31T11:03:44;7.80;;;2.72;;
50569;SDS011;36525;49.398;7.614;2023-07-31T11:06:15;8.10;;;2.97;;
50569;SDS011;36525;49.398;7.614;2023-07-31T11:08:45;8.55;;;2.42;;
50569;SDS011;36525;49.398;7.614;2023-07-31T11:11:17;9.68;;;2.90;;
50569;SDS011;36525;49.398;7.614;2023-07-31T11:13:47;12.93;;;3.28;;
50569;SDS011;36525;49.398;7.614;2023-07-31T11:16:17;8.25;;;2.75;;
50569;SDS011;36525;49.398;7.614;2023-07-31T11:18:47;9.70;;;3.38;;
50569;SDS011;36525;49.398;7.614;2023-07-31T11:21:24;6.35;;;2.50;;
50569;SDS011;36525;49.398;7.614;2023-07-31T11:24:24;10.85;;;2.78;;
50569;SDS011;36525;49.398;7.614;2023-07-31T11:26:52;7.45;;;3.10;;
50569;SDS011;36525;49.398;7.614;2023-07-31T11:29:19;6.65;;;3.10;;
50569;SDS011;36525;49.398;7.614;2023-07-31T11:31:47;9.80;;;3.40;;
50569;SDS011;36525;49.398;7.614;2023-07-31T11:34:15;16.05;;;2.90;;
50569;SDS011;36525;49.398;7.614;2023-07-31T11:36:52;7.90;;;2.78;;
50569;SDS011;36525;49.398;7.614;2023-07-31T11:39:21;8.23;;;2.85;;
50569;SDS011;36525;49.398;7.614;2023-07-31T11:41:48;7.75;;;2.50;;
50569;SDS011;36525;49.398;7.614;2023-07-31T11:44:15;7.88;;;2.97;;
50569;SDS011;36525;49.398;7.614;2023-07-31T11:46:56;7.70;;;2.78;;
50569;SDS011;36525;49.398;7.614;2023-07-31T11:49:23;9.65;;;3.03;;
50569;SDS011;36525;49.398;7.614;2023-07-31T11:51:50;7.30;;;2.47;;
50569;SDS011;36525;49.398;7.614;2023-07-31T11:54:17;12.07;;;3.03;;
50569;SDS011;36525;49.398;7.614;2023-07-31T11:56:44;8.43;;;2.88;;
50569;SDS011;36525;49.398;7.614;2023-07-31T11:59:12;10.57;;;2.58;;
50569;SDS011;36525;49.398;7.614;2023-07-31T12:01:39;7.35;;;2.72;;
50569;SDS011;36525;49.398;7.614;2023-07-31T12:04:06;8.70;;;2.42;;
50569;SDS011;36525;49.398;7.614;2023-07-31T12:06:34;9.15;;;3.25;;
50569;SDS011;36525;49.398;7.614;2023-07-31T12:09:03;10.20;;;2.58;;
50569;SDS011;36525;49.398;7.614;2023-07-31T12:11:41;7.55;;;2.78;;
50569;SDS011;36525;49.398;7.614;2023-07-31T12:14:26;7.18;;;2.58;;
50569;SDS011;36525;49.398;7.614;2023-07-31T12:17:01;10.00;;;2.90;;
50569;SDS011;36525;49.398;7.614;2023-07-31T12:19:31;12.65;;;3.28;;
50569;SDS011;36525;49.398;7.614;2023-07-31T12:21:59;8.45;;;2.90;;
50569;SDS011;36525;49.398;7.614;2023-07-31T12:24:28;6.97;;;2.65;;
50569;SDS011;36525;49.398;7.614;2023-07-31T12:26:55;8.80;;;2.63;;
50569;SDS011;36525;49.398;7.614;2023-07-31T12:29:22;7.75;;;2.38;;
50569;SDS011;36525;49.398;7.614;2023-07-31T12:31:49;7.20;;;2.13;;
50569;SDS011;36525;49.398;7.614;2023-07-31T12:34:17;9.52;;;3.45;;
50569;SDS011;36525;49.398;7.614;2023-07-31T12:36:47;7.85;;;2.80;;
50569;SDS011;36525;49.398;7.614;2023-07-31T12:39:16;6.82;;;2.65;;
50569;SDS011;36525;49.398;7.614;2023-07-31T12:41:44;7.32;;;2.60;;
50569;SDS011;36525;49.398;7.614;2023-07-31T12:44:11;10.40;;;2.13;;
50569;SDS011;36525;49.398;7.614;2023-07-31T12:46:38;8.18;;;3.20;;
50569;SDS011;36525;49.398;7.614;2023-07-31T12:49:06;9.88;;;3.13;;
50569;SDS011;36525;49.398;7.614;2023-07-31T12:51:33;7.72;;;2.65;;
50569;SDS011;36525;49.398;7.614;2023-07-31T12:54:00;6.93;;;2.35;;
50569;SDS011;36525;49.398;7.614;2023-07-31T12:56:27;6.68;;;2.92;;
50569;SDS011;36525;49.398;7.614;2023-07-31T12:58:54;7.25;;;3.10;;
50569;SDS011;36525;49.398;7.614;2023-07-31T13:01:21;7.10;;;3.20;;
50569;SDS011;36525;49.398;7.614;2023-07-31T13:03:48;9.32;;;3.15;;
50569;SDS011;36525;49.398;7.614;2023-07-31T13:06:15;7.60;;;2.65;;
50569;SDS011;36525;49.398;7.614;2023-07-31T13:08:42;7.35;;;2.70;;
50569;SDS011;36525;49.398;7.614;2023-07-31T13:11:09;6.82;;;2.75;;
50569;SDS011;36525;49.398;7.614;2023-07-31T13:13:37;7.78;;;3.05;;
50569;SDS011;36525;49.398;7.614;2023-07-31T13:16:04;7.85;;;3.00;;
50569;SDS011;36525;49.398;7.614;2023-07-31T13:18:31;6.72;;;2.97;;
50569;SDS011;36525;49.398;7.614;2023-07-31T13:20:58;12.15;;;2.72;;
50569;SDS011;36525;49.398;7.614;2023-07-31T13:23:25;8.68;;;3.10;;
50569;SDS011;36525;49.398;7.614;2023-07-31T13:25:52;7.80;;;3.08;;
50569;SDS011;36525;49.398;7.614;2023-07-31T13:28:19;7.18;;;2.55;;
50569;SDS011;36525;49.398;7.614;2023-07-31T13:30:46;5.95;;;2.45;;
50569;SDS011;36525;49.398;7.614;2023-07-31T13:33:13;5.47;;;2.53;;
50569;SDS011;36525;49.398;7.614;2023-07-31T13:36:00;9.00;;;2.85;;
50569;SDS011;36525;49.398;7.614;2023-07-31T13:38:27;7.28;;;2.40;;
50569;SDS011;36525;49.398;7.614;2023-07-31T13:40:54;6.95;;;2.45;;
50569;SDS011;36525;49.398;7.614;2023-07-31T13:43:23;4.50;;;1.90;;
50569;SDS011;36525;49.398;7.614;2023-07-31T13:45:50;4.68;;;2.08;;
50569;SDS011;36525;49.398;7.614;2023-07-31T13:48:17;7.20;;;2.33;;
50569;SDS011;36525;49.398;7.614;2023-07-31T13:50:44;6.63;;;2.05;;
50569;SDS011;36525;49.398;7.614;2023-07-31T13:53:13;6.75;;;2.42;;
50569;SDS011;36525;49.398;7.614;2023-07-31T13:55:40;7.65;;;1.90;;
50569;SDS011;36525;49.398;7.614;2023-07-31T13:58:07;9.70;;;2.45;;
50569;SDS011;36525;49.398;7.614;2023-07-31T14:00:34;6.50;;;1.60;;
50569;SDS011;36525;49.398;7.614;2023-07-31T14:03:01;6.30;;;2.15;;
50569;SDS011;36525;49.398;7.614;2023-07-31T14:05:29;6.70;;;2.20;;
50569;SDS011;36525;49.398;7.614;2023-07-31T14:07:56;7.70;;;2.20;;
50569;SDS011;36525;49.398;7.614;2023-07-31T14:10:23;13.38;;;2.20;;
50569;SDS011;36525;49.398;7.614;2023-07-31T14:12:50;8.25;;;2.72;;
50569;SDS011;36525;49.398;7.614;2023-07-31T14:15:17;6.15;;;2.70;;
50569;SDS011;36525;49.398;7.614;2023-07-31T14:17:47;7.82;;;2.40;;
50569;SDS011;36525;49.398;7.614;2023-07-31T14:20:15;5.88;;;2.47;;
50569;SDS011;36525;49.398;7.614;2023-07-31T14:22:42;10.15;;;2.92;;
50569;SDS011;36525;49.398;7.614;2023-07-31T14:25:09;8.43;;;2.67;;
50569;SDS011;36525;49.398;7.614;2023-07-31T14:27:37;7.95;;;2.60;;
50569;SDS011;36525;49.398;7.614;2023-07-31T14:30:04;4.10;;;1.92;;
50569;SDS011;36525;49.398;7.614;2023-07-31T14:32:33;5.68;;;2.35;;
50569;SDS011;36525;49.398;7.614;2023-07-31T14:35:00;9.20;;;2.97;;
50569;SDS011;36525;49.398;7.614;2023-07-31T14:37:28;7.68;;;2.78;;
50569;SDS011;36525;49.398;7.614;2023-07-31T14:40:05;10.48;;;2.78;;
50569;SDS011;36525;49.398;7.614;2023-07-31T14:42:34;8.52;;;2.70;;
50569;SDS011;36525;49.398;7.614;2023-07-31T14:45:02;6.43;;;2.60;;
50569;SDS011;36525;49.398;7.614;2023-07-31T14:47:33;6.63;;;2.90;;
50569;SDS011;36525;49.398;7.614;2023-07-31T14:50:03;13.68;;;3.33;;
50569;SDS011;36525;49.398;7.614;2023-07-31T14:52:33;6.75;;;2.92;;
50569;SDS011;36525;49.398;7.614;2023-07-31T14:55:01;6.68;;;2.72;;
50569;SDS011;36525;49.398;7.614;2023-07-31T14:57:28;5.80;;;2.92;;
50569;SDS011;36525;49.398;7.614;2023-07-31T14:59:55;14.05;;;3.13;;